sensor_id;sensor_type;location;lat;lon;timestamp;P1;durP1;ratioP1;P2;durP2;ratioP2
5217;SDS011;26539;51.064;6.346;2023-07-08T00:00:28;10.23;;;4.37;;
5217;SDS011;26539;51.064;6.346;2023-07-08T00:03:06;10.10;;;4.93;;
5217;SDS011;26539;51.064;6.346;2023-07-08T00:05:44;14.03;;;4.77;;
5217;SDS011;26539;51.064;6.346;2023-07-08T00:08:29;8.67;;;4.40;;
5217;SDS011;26539;51.064;6.346;2023-07-08T00:11:04;8.23;;;5.37;;
5217;SDS011;26539;51.064;6.346;2023-07-08T00:13:41;9.57;;;4.60;;
5217;SDS011;26539;51.064;6.346;2023-07-08T00:16:17;10.00;;;3.87;;
5217;SDS011;26539;51.064;6.346;2023-07-08T00:18:46;5.77;;;4.23;;
5217;SDS011;26539;51.064;6.346;2023-07-08T00:21:17;9.93;;;4.70;;
5217;SDS011;26539;51.064;6.346;2023-07-08T00:24:31;10.97;;;4.97;;
5217;SDS011;26539;51.064;6.346;2023-07-08T00:27:39;13.27;;;5.40;;
5217;SDS011;26539;51.064;6.346;2023-07-08T00:33:05;13.10;;;4.90;;
5217;SDS011;26539;51.064;6.346;2023-07-08T00:38:47;12.10;;;5.33;;
5217;SDS011;26539;51.064;6.346;2023-07-08T00:41:42;12.60;;;4.87;;
5217;SDS011;26539;51.064;6.346;2023-07-08T00:44:13;15.77;;;5.00;;
5217;SDS011;26539;51.064;6.346;2023-07-08T00:47:05;14.47;;;5.23;;
5217;SDS011;26539;51.064;6.346;2023-07-08T00:49:59;15.73;;;5.80;;
5217;SDS011;26539;51.064;6.346;2023-07-08T00:52:39;10.33;;;4.30;;
5217;SDS011;26539;51.064;6.346;2023-07-08T00:55:31;11.50;;;4.30;;
5217;SDS011;26539;51.064;6.346;2023-07-08T00:58:02;9.97;;;4.90;;
5217;SDS011;26539;51.064;6.346;2023-07-08T01:00:37;11.30;;;5.30;;
5217;SDS011;26539;51.064;6.346;2023-07-08T01:03:31;7.27;;;4.40;;
5217;SDS011;26539;51.064;6.346;2023-07-08T01:06:21;10.63;;;5.43;;
5217;SDS011;26539;51.064;6.346;2023-07-08T01:08:58;11.87;;;4.77;;
5217;SDS011;26539;51.064;6.346;2023-07-08T01:11:36;12.60;;;5.40;;
5217;SDS011;26539;51.064;6.346;2023-07-08T01:14:10;8.80;;;4.20;;
5217;SDS011;26539;51.064;6.346;2023-07-08T01:16:48;23.40;;;6.20;;
5217;SDS011;26539;51.064;6.346;2023-07-08T01:19:20;10.30;;;4.80;;
5217;SDS011;26539;51.064;6.346;2023-07-08T01:24:44;12.97;;;5.17;;
5217;SDS011;26539;51.064;6.346;2023-07-08T01:27:14;17.90;;;5.17;;
5217;SDS011;26539;51.064;6.346;2023-07-08T01:29:49;17.70;;;5.80;;
5217;SDS011;26539;51.064;6.346;2023-07-08T01:32:37;12.10;;;4.37;;
5217;SDS011;26539;51.064;6.346;2023-07-08T01:41:04;12.67;;;4.87;;
5217;SDS011;26539;51.064;6.346;2023-07-08T01:47:13;13.87;;;4.77;;
5217;SDS011;26539;51.064;6.346;2023-07-08T01:49:58;16.43;;;5.60;;
5217;SDS011;26539;51.064;6.346;2023-07-08T01:52:41;12.17;;;5.60;;
5217;SDS011;26539;51.064;6.346;2023-07-08T01:55:15;15.13;;;5.70;;
5217;SDS011;26539;51.064;6.346;2023-07-08T01:58:01;11.20;;;4.77;;
5217;SDS011;26539;51.064;6.346;2023-07-08T02:00:33;10.10;;;4.03;;
5217;SDS011;26539;51.064;6.346;2023-07-08T02:03:29;12.87;;;4.90;;
5217;SDS011;26539;51.064;6.346;2023-07-08T02:05:58;14.97;;;5.50;;
5217;SDS011;26539;51.064;6.346;2023-07-08T02:08:35;13.90;;;5.43;;
5217;SDS011;26539;51.064;6.346;2023-07-08T02:11:03;13.73;;;5.47;;
5217;SDS011;26539;51.064;6.346;2023-07-08T02:13:44;11.43;;;5.33;;
5217;SDS011;26539;51.064;6.346;2023-07-08T02:16:22;17.87;;;5.40;;
5217;SDS011;26539;51.064;6.346;2023-07-08T02:18:58;16.53;;;5.60;;
5217;SDS011;26539;51.064;6.346;2023-07-08T02:21:29;13.87;;;6.40;;
5217;SDS011;26539;51.064;6.346;2023-07-08T02:23:56;15.87;;;5.60;;
5217;SDS011;26539;51.064;6.346;2023-07-08T02:26:23;13.73;;;6.10;;
5217;SDS011;26539;51.064;6.346;2023-07-08T02:32:03;22.17;;;6.10;;
5217;SDS011;26539;51.064;6.346;2023-07-08T02:34:37;20.10;;;6.37;;
5217;SDS011;26539;51.064;6.346;2023-07-08T02:37:15;15.83;;;6.00;;
5217;SDS011;26539;51.064;6.346;2023-07-08T02:39:48;19.60;;;6.50;;
5217;SDS011;26539;51.064;6.346;2023-07-08T02:42:23;17.80;;;6.60;;
5217;SDS011;26539;51.064;6.346;2023-07-08T02:44:57;20.10;;;7.70;;
5217;SDS011;26539;51.064;6.346;2023-07-08T02:47:51;29.13;;;7.60;;
5217;SDS011;26539;51.064;6.346;2023-07-08T02:50:19;22.80;;;7.50;;
5217;SDS011;26539;51.064;6.346;2023-07-08T02:52:51;23.97;;;6.53;;
5217;SDS011;26539;51.064;6.346;2023-07-08T02:55:21;17.10;;;7.60;;
5217;SDS011;26539;51.064;6.346;2023-07-08T03:00:53;33.80;;;6.93;;
5217;SDS011;26539;51.064;6.346;2023-07-08T03:03:33;23.73;;;7.63;;
5217;SDS011;26539;51.064;6.346;2023-07-08T03:06:08;20.10;;;8.00;;
5217;SDS011;26539;51.064;6.346;2023-07-08T03:08:46;23.97;;;7.87;;
5217;SDS011;26539;51.064;6.346;2023-07-08T03:11:17;16.93;;;7.77;;
5217;SDS011;26539;51.064;6.346;2023-07-08T03:13:49;27.33;;;7.60;;
5217;SDS011;26539;51.064;6.346;2023-07-08T03:16:22;19.70;;;7.30;;
5217;SDS011;26539;51.064;6.346;2023-07-08T03:18:58;17.83;;;7.73;;
5217;SDS011;26539;51.064;6.346;2023-07-08T03:21:36;19.10;;;7.83;;
5217;SDS011;26539;51.064;6.346;2023-07-08T03:24:02;19.00;;;7.93;;
5217;SDS011;26539;51.064;6.346;2023-07-08T03:29:31;15.70;;;7.43;;
5217;SDS011;26539;51.064;6.346;2023-07-08T03:32:02;21.00;;;7.13;;
5217;SDS011;26539;51.064;6.346;2023-07-08T03:34:42;13.83;;;6.87;;
5217;SDS011;26539;51.064;6.346;2023-07-08T03:37:24;21.17;;;7.33;;
5217;SDS011;26539;51.064;6.346;2023-07-08T03:40:07;11.67;;;6.57;;
5217;SDS011;26539;51.064;6.346;2023-07-08T03:42:44;9.93;;;6.60;;
5217;SDS011;26539;51.064;6.346;2023-07-08T03:45:10;8.93;;;5.90;;
5217;SDS011;26539;51.064;6.346;2023-07-08T03:47:41;13.10;;;7.17;;
5217;SDS011;26539;51.064;6.346;2023-07-08T03:50:17;15.13;;;7.40;;
5217;SDS011;26539;51.064;6.346;2023-07-08T03:52:55;13.57;;;7.13;;
5217;SDS011;26539;51.064;6.346;2023-07-08T03:55:39;12.83;;;6.67;;
5217;SDS011;26539;51.064;6.346;2023-07-08T03:58:11;8.33;;;6.60;;
5217;SDS011;26539;51.064;6.346;2023-07-08T04:00:42;8.43;;;6.10;;
5217;SDS011;26539;51.064;6.346;2023-07-08T04:03:20;8.83;;;6.37;;
5217;SDS011;26539;51.064;6.346;2023-07-08T04:05:48;9.50;;;6.50;;
5217;SDS011;26539;51.064;6.346;2023-07-08T04:08:19;12.37;;;6.20;;
5217;SDS011;26539;51.064;6.346;2023-07-08T04:11:09;9.50;;;6.40;;
5217;SDS011;26539;51.064;6.346;2023-07-08T04:13:48;9.33;;;6.50;;
5217;SDS011;26539;51.064;6.346;2023-07-08T04:16:28;9.27;;;6.97;;
5217;SDS011;26539;51.064;6.346;2023-07-08T04:19:07;7.10;;;5.70;;
5217;SDS011;26539;51.064;6.346;2023-07-08T04:21:39;8.23;;;6.37;;
5217;SDS011;26539;51.064;6.346;2023-07-08T04:24:07;8.53;;;6.30;;
5217;SDS011;26539;51.064;6.346;2023-07-08T04:26:36;8.53;;;6.23;;
5217;SDS011;26539;51.064;6.346;2023-07-08T04:29:15;7.90;;;6.77;;
5217;SDS011;26539;51.064;6.346;2023-07-08T04:31:51;14.27;;;6.30;;
5217;SDS011;26539;51.064;6.346;2023-07-08T04:34:22;12.67;;;7.20;;
5217;SDS011;26539;51.064;6.346;2023-07-08T04:36:50;9.10;;;6.67;;
5217;SDS011;26539;51.064;6.346;2023-07-08T04:39:27;10.80;;;6.37;;
5217;SDS011;26539;51.064;6.346;2023-07-08T04:41:59;12.27;;;6.97;;
5217;SDS011;26539;51.064;6.346;2023-07-08T04:44:50;7.87;;;6.13;;
5217;SDS011;26539;51.064;6.346;2023-07-08T04:47:18;8.70;;;6.40;;
5217;SDS011;26539;51.064;6.346;2023-07-08T04:49:57;10.77;;;7.50;;
5217;SDS011;26539;51.064;6.346;2023-07-08T04:52:35;12.50;;;7.10;;
5217;SDS011;26539;51.064;6.346;2023-07-08T04:55:12;7.53;;;6.73;;
5217;SDS011;26539;51.064;6.346;2023-07-08T04:57:46;9.37;;;6.20;;
5217;SDS011;26539;51.064;6.346;2023-07-08T05:00:22;9.57;;;6.30;;
5217;SDS011;26539;51.064;6.346;2023-07-08T05:03:08;11.80;;;7.00;;
5217;SDS011;26539;51.064;6.346;2023-07-08T05:06:03;6.83;;;5.70;;
5217;SDS011;26539;51.064;6.346;2023-07-08T05:08:34;8.17;;;5.90;;
5217;SDS011;26539;51.064;6.346;2023-07-08T05:11:13;8.37;;;6.53;;
5217;SDS011;26539;51.064;6.346;2023-07-08T05:13:41;10.73;;;6.60;;
5217;SDS011;26539;51.064;6.346;2023-07-08T05:16:47;7.47;;;6.57;;
5217;SDS011;26539;51.064;6.346;2023-07-08T05:19:24;11.50;;;7.10;;
5217;SDS011;26539;51.064;6.346;2023-07-08T05:22:02;8.00;;;6.57;;
5217;SDS011;26539;51.064;6.346;2023-07-08T05:24:53;11.20;;;6.00;;
5217;SDS011;26539;51.064;6.346;2023-07-08T05:27:30;10.20;;;6.53;;
5217;SDS011;26539;51.064;6.346;2023-07-08T05:29:58;11.80;;;7.50;;
5217;SDS011;26539;51.064;6.346;2023-07-08T05:32:31;12.13;;;6.60;;
5217;SDS011;26539;51.064;6.346;2023-07-08T05:35:06;10.17;;;6.40;;
5217;SDS011;26539;51.064;6.346;2023-07-08T05:37:37;9.77;;;6.80;;
5217;SDS011;26539;51.064;6.346;2023-07-08T05:40:26;8.00;;;6.33;;
5217;SDS011;26539;51.064;6.346;2023-07-08T05:42:55;7.50;;;5.53;;
5217;SDS011;26539;51.064;6.346;2023-07-08T05:45:25;16.83;;;7.17;;
5217;SDS011;26539;51.064;6.346;2023-07-08T05:47:58;13.77;;;7.20;;
5217;SDS011;26539;51.064;6.346;2023-07-08T05:50:27;10.30;;;6.60;;
5217;SDS011;26539;51.064;6.346;2023-07-08T05:52:53;8.93;;;6.90;;
5217;SDS011;26539;51.064;6.346;2023-07-08T05:58:10;8.30;;;6.23;;
5217;SDS011;26539;51.064;6.346;2023-07-08T06:00:45;15.60;;;7.20;;
5217;SDS011;26539;51.064;6.346;2023-07-08T06:03:29;12.73;;;6.80;;
5217;SDS011;26539;51.064;6.346;2023-07-08T06:05:57;11.83;;;7.17;;
5217;SDS011;26539;51.064;6.346;2023-07-08T06:08:23;12.17;;;6.30;;
5217;SDS011;26539;51.064;6.346;2023-07-08T06:10:49;10.30;;;7.00;;
5217;SDS011;26539;51.064;6.346;2023-07-08T06:13:15;10.20;;;7.40;;
5217;SDS011;26539;51.064;6.346;2023-07-08T06:15:41;14.03;;;6.73;;
5217;SDS011;26539;51.064;6.346;2023-07-08T06:18:07;8.37;;;6.80;;
5217;SDS011;26539;51.064;6.346;2023-07-08T06:20:32;8.30;;;6.63;;
5217;SDS011;26539;51.064;6.346;2023-07-08T06:22:58;8.57;;;5.93;;
5217;SDS011;26539;51.064;6.346;2023-07-08T06:25:27;7.10;;;5.30;;
5217;SDS011;26539;51.064;6.346;2023-07-08T06:27:52;9.37;;;6.43;;
5217;SDS011;26539;51.064;6.346;2023-07-08T06:30:18;6.50;;;5.90;;
5217;SDS011;26539;51.064;6.346;2023-07-08T06:32:46;8.77;;;6.87;;
5217;SDS011;26539;51.064;6.346;2023-07-08T06:35:12;8.57;;;6.17;;
5217;SDS011;26539;51.064;6.346;2023-07-08T06:37:40;6.30;;;5.70;;
5217;SDS011;26539;51.064;6.346;2023-07-08T06:40:07;8.50;;;5.70;;
5217;SDS011;26539;51.064;6.346;2023-07-08T06:42:33;6.53;;;5.73;;
5217;SDS011;26539;51.064;6.346;2023-07-08T06:44:58;6.60;;;5.80;;
5217;SDS011;26539;51.064;6.346;2023-07-08T06:47:24;6.63;;;5.77;;
5217;SDS011;26539;51.064;6.346;2023-07-08T06:49:52;20.20;;;5.77;;
5217;SDS011;26539;51.064;6.346;2023-07-08T06:52:18;6.80;;;6.03;;
5217;SDS011;26539;51.064;6.346;2023-07-08T06:54:43;7.40;;;6.17;;
5217;SDS011;26539;51.064;6.346;2023-07-08T06:57:09;6.90;;;6.30;;
5217;SDS011;26539;51.064;6.346;2023-07-08T06:59:34;6.33;;;5.73;;
5217;SDS011;26539;51.064;6.346;2023-07-08T07:02:00;10.07;;;6.87;;
5217;SDS011;26539;51.064;6.346;2023-07-08T07:04:25;6.37;;;5.80;;
5217;SDS011;26539;51.064;6.346;2023-07-08T07:06:51;8.10;;;5.80;;
5217;SDS011;26539;51.064;6.346;2023-07-08T07:09:16;8.80;;;5.77;;
5217;SDS011;26539;51.064;6.346;2023-07-08T07:11:42;6.10;;;5.60;;
5217;SDS011;26539;51.064;6.346;2023-07-08T07:14:07;8.13;;;6.30;;
5217;SDS011;26539;51.064;6.346;2023-07-08T07:16:33;5.68;;;5.22;;
5217;SDS011;26539;51.064;6.346;2023-07-08T07:18:59;6.40;;;5.78;;
5217;SDS011;26539;51.064;6.346;2023-07-08T07:21:24;10.95;;;5.00;;
5217;SDS011;26539;51.064;6.346;2023-07-08T07:23:50;6.63;;;6.03;;
5217;SDS011;26539;51.064;6.346;2023-07-08T07:26:15;6.50;;;5.90;;
5217;SDS011;26539;51.064;6.346;2023-07-08T07:28:41;8.23;;;6.60;;
5217;SDS011;26539;51.064;6.346;2023-07-08T07:31:07;11.10;;;6.20;;
5217;SDS011;26539;51.064;6.346;2023-07-08T07:33:32;7.07;;;6.20;;
5217;SDS011;26539;51.064;6.346;2023-07-08T07:35:58;6.10;;;5.50;;
5217;SDS011;26539;51.064;6.346;2023-07-08T07:38:24;6.67;;;6.07;;
5217;SDS011;26539;51.064;6.346;2023-07-08T07:40:53;6.67;;;6.03;;
5217;SDS011;26539;51.064;6.346;2023-07-08T07:43:20;6.33;;;5.73;;
5217;SDS011;26539;51.064;6.346;2023-07-08T07:45:49;5.90;;;5.30;;
5217;SDS011;26539;51.064;6.346;2023-07-08T07:48:18;6.63;;;5.93;;
5217;SDS011;26539;51.064;6.346;2023-07-08T07:50:46;6.27;;;5.67;;
5217;SDS011;26539;51.064;6.346;2023-07-08T07:53:13;6.30;;;5.33;;
5217;SDS011;26539;51.064;6.346;2023-07-08T07:55:38;6.27;;;5.60;;
5217;SDS011;26539;51.064;6.346;2023-07-08T07:58:04;8.93;;;6.27;;
5217;SDS011;26539;51.064;6.346;2023-07-08T08:00:30;9.93;;;5.90;;
5217;SDS011;26539;51.064;6.346;2023-07-08T08:02:55;5.70;;;5.20;;
5217;SDS011;26539;51.064;6.346;2023-07-08T08:05:21;7.00;;;5.87;;
5217;SDS011;26539;51.064;6.346;2023-07-08T08:07:46;6.30;;;5.70;;
5217;SDS011;26539;51.064;6.346;2023-07-08T08:10:12;6.67;;;6.07;;
5217;SDS011;26539;51.064;6.346;2023-07-08T08:12:38;5.70;;;5.20;;
5217;SDS011;26539;51.064;6.346;2023-07-08T08:15:04;6.33;;;5.73;;
5217;SDS011;26539;51.064;6.346;2023-07-08T08:17:30;6.67;;;6.07;;
5217;SDS011;26539;51.064;6.346;2023-07-08T08:19:55;12.97;;;6.60;;
5217;SDS011;26539;51.064;6.346;2023-07-08T08:22:21;7.90;;;6.63;;
5217;SDS011;26539;51.064;6.346;2023-07-08T08:24:46;6.87;;;6.00;;
5217;SDS011;26539;51.064;6.346;2023-07-08T08:27:12;8.77;;;6.40;;
5217;SDS011;26539;51.064;6.346;2023-07-08T08:29:37;11.10;;;6.20;;
5217;SDS011;26539;51.064;6.346;2023-07-08T08:32:03;6.80;;;5.97;;
5217;SDS011;26539;51.064;6.346;2023-07-08T08:34:31;7.80;;;6.70;;
5217;SDS011;26539;51.064;6.346;2023-07-08T08:36:57;7.33;;;6.00;;
5217;SDS011;26539;51.064;6.346;2023-07-08T08:39:22;8.03;;;6.20;;
5217;SDS011;26539;51.064;6.346;2023-07-08T08:41:51;7.40;;;6.63;;
5217;SDS011;26539;51.064;6.346;2023-07-08T08:44:21;7.33;;;6.60;;
5217;SDS011;26539;51.064;6.346;2023-07-08T08:46:58;7.70;;;7.00;;
5217;SDS011;26539;51.064;6.346;2023-07-08T08:49:30;6.97;;;5.30;;
5217;SDS011;26539;51.064;6.346;2023-07-08T08:52:08;6.40;;;5.60;;
5217;SDS011;26539;51.064;6.346;2023-07-08T08:54:34;8.23;;;6.43;;
5217;SDS011;26539;51.064;6.346;2023-07-08T08:57:12;6.83;;;6.23;;
5217;SDS011;26539;51.064;6.346;2023-07-08T08:59:42;7.80;;;6.20;;
5217;SDS011;26539;51.064;6.346;2023-07-08T09:05:14;6.40;;;5.90;;
5217;SDS011;26539;51.064;6.346;2023-07-08T09:10:31;7.47;;;5.90;;
5217;SDS011;26539;51.064;6.346;2023-07-08T09:13:31;6.63;;;6.03;;
5217;SDS011;26539;51.064;6.346;2023-07-08T09:19:08;6.77;;;5.83;;
5217;SDS011;26539;51.064;6.346;2023-07-08T09:21:57;9.23;;;6.40;;
5217;SDS011;26539;51.064;6.346;2023-07-08T09:24:48;6.43;;;5.93;;
5217;SDS011;26539;51.064;6.346;2023-07-08T09:27:19;6.83;;;6.03;;
5217;SDS011;26539;51.064;6.346;2023-07-08T09:29:45;7.30;;;5.80;;
5217;SDS011;26539;51.064;6.346;2023-07-08T09:32:18;7.20;;;6.50;;
5217;SDS011;26539;51.064;6.346;2023-07-08T09:34:47;11.50;;;6.10;;
5217;SDS011;26539;51.064;6.346;2023-07-08T09:37:27;7.33;;;6.67;;
5217;SDS011;26539;51.064;6.346;2023-07-08T09:39:54;6.67;;;6.07;;
5217;SDS011;26539;51.064;6.346;2023-07-08T09:42:22;9.57;;;6.27;;
5217;SDS011;26539;51.064;6.346;2023-07-08T09:44:55;7.13;;;6.30;;
5217;SDS011;26539;51.064;6.346;2023-07-08T09:47:24;6.87;;;5.60;;
5217;SDS011;26539;51.064;6.346;2023-07-08T09:49:56;6.43;;;5.93;;
5217;SDS011;26539;51.064;6.346;2023-07-08T09:52:22;7.00;;;6.30;;
5217;SDS011;26539;51.064;6.346;2023-07-08T09:54:48;7.97;;;5.97;;
5217;SDS011;26539;51.064;6.346;2023-07-08T09:57:30;6.97;;;6.03;;
5217;SDS011;26539;51.064;6.346;2023-07-08T09:59:58;6.47;;;5.87;;
5217;SDS011;26539;51.064;6.346;2023-07-08T10:04:59;6.70;;;6.10;;
5217;SDS011;26539;51.064;6.346;2023-07-08T10:07:32;6.23;;;5.60;;
5217;SDS011;26539;51.064;6.346;2023-07-08T10:09:59;6.60;;;5.60;;
5217;SDS011;26539;51.064;6.346;2023-07-08T10:12:27;7.53;;;5.90;;
5217;SDS011;26539;51.064;6.346;2023-07-08T10:14:59;7.73;;;5.53;;
5217;SDS011;26539;51.064;6.346;2023-07-08T10:17:31;6.97;;;6.00;;
5217;SDS011;26539;51.064;6.346;2023-07-08T10:19:57;6.20;;;5.67;;
5217;SDS011;26539;51.064;6.346;2023-07-08T10:22:26;5.93;;;5.13;;
5217;SDS011;26539;51.064;6.346;2023-07-08T10:28:34;6.73;;;5.97;;
5217;SDS011;26539;51.064;6.346;2023-07-08T10:36:26;9.87;;;5.90;;
5217;SDS011;26539;51.064;6.346;2023-07-08T10:39:46;5.90;;;5.30;;
5217;SDS011;26539;51.064;6.346;2023-07-08T10:47:46;5.73;;;5.20;;
5217;SDS011;26539;51.064;6.346;2023-07-08T10:53:06;7.13;;;5.60;;
5217;SDS011;26539;51.064;6.346;2023-07-08T10:55:59;9.60;;;5.70;;
5217;SDS011;26539;51.064;6.346;2023-07-08T11:04:07;10.30;;;5.50;;
5217;SDS011;26539;51.064;6.346;2023-07-08T11:06:46;5.97;;;5.37;;
5217;SDS011;26539;51.064;6.346;2023-07-08T11:09:15;7.80;;;5.10;;
5217;SDS011;26539;51.064;6.346;2023-07-08T11:14:34;8.03;;;4.97;;
5217;SDS011;26539;51.064;6.346;2023-07-08T11:17:11;5.60;;;4.47;;
5217;SDS011;26539;51.064;6.346;2023-07-08T11:19:47;6.83;;;4.70;;
5217;SDS011;26539;51.064;6.346;2023-07-08T11:22:19;6.20;;;4.83;;
5217;SDS011;26539;51.064;6.346;2023-07-08T11:24:47;8.40;;;4.97;;
5217;SDS011;26539;51.064;6.346;2023-07-08T11:27:29;5.73;;;5.17;;
5217;SDS011;26539;51.064;6.346;2023-07-08T11:30:21;7.60;;;5.00;;
5217;SDS011;26539;51.064;6.346;2023-07-08T11:32:52;11.30;;;4.97;;
5217;SDS011;26539;51.064;6.346;2023-07-08T11:35:41;8.20;;;4.87;;
5217;SDS011;26539;51.064;6.346;2023-07-08T11:38:20;7.60;;;4.77;;
5217;SDS011;26539;51.064;6.346;2023-07-08T11:40:56;10.63;;;4.17;;
5217;SDS011;26539;51.064;6.346;2023-07-08T11:43:26;6.80;;;4.83;;
5217;SDS011;26539;51.064;6.346;2023-07-08T11:46:00;6.63;;;4.80;;
5217;SDS011;26539;51.064;6.346;2023-07-08T11:48:30;12.40;;;5.30;;
5217;SDS011;26539;51.064;6.346;2023-07-08T11:50:59;6.50;;;4.50;;
5217;SDS011;26539;51.064;6.346;2023-07-08T11:55:56;6.73;;;4.53;;
5217;SDS011;26539;51.064;6.346;2023-07-08T12:03:39;7.67;;;5.00;;
5217;SDS011;26539;51.064;6.346;2023-07-08T12:08:55;4.97;;;4.03;;
5217;SDS011;26539;51.064;6.346;2023-07-08T12:11:31;9.43;;;4.50;;
5217;SDS011;26539;51.064;6.346;2023-07-08T12:13:59;6.17;;;4.50;;
5217;SDS011;26539;51.064;6.346;2023-07-08T12:16:28;7.60;;;5.17;;
5217;SDS011;26539;51.064;6.346;2023-07-08T12:18:55;7.67;;;4.37;;
5217;SDS011;26539;51.064;6.346;2023-07-08T12:21:22;6.30;;;4.60;;
5217;SDS011;26539;51.064;6.346;2023-07-08T12:23:51;5.03;;;4.00;;
5217;SDS011;26539;51.064;6.346;2023-07-08T12:26:17;5.47;;;3.70;;
5217;SDS011;26539;51.064;6.346;2023-07-08T12:28:42;6.10;;;4.47;;
5217;SDS011;26539;51.064;6.346;2023-07-08T12:31:19;4.73;;;3.80;;
5217;SDS011;26539;51.064;6.346;2023-07-08T12:33:47;5.70;;;4.53;;
5217;SDS011;26539;51.064;6.346;2023-07-08T12:36:20;10.20;;;4.70;;
5217;SDS011;26539;51.064;6.346;2023-07-08T12:38:58;6.63;;;5.23;;
5217;SDS011;26539;51.064;6.346;2023-07-08T12:41:27;8.40;;;4.83;;
5217;SDS011;26539;51.064;6.346;2023-07-08T12:43:56;11.03;;;4.87;;
5217;SDS011;26539;51.064;6.346;2023-07-08T12:46:22;6.00;;;4.80;;
5217;SDS011;26539;51.064;6.346;2023-07-08T12:48:48;8.67;;;4.60;;
5217;SDS011;26539;51.064;6.346;2023-07-08T12:54:08;6.43;;;4.70;;
5217;SDS011;26539;51.064;6.346;2023-07-08T12:56:42;6.43;;;4.73;;
5217;SDS011;26539;51.064;6.346;2023-07-08T12:59:17;8.40;;;6.07;;
5217;SDS011;26539;51.064;6.346;2023-07-08T13:01:46;5.80;;;4.40;;
5217;SDS011;26539;51.064;6.346;2023-07-08T13:04:13;7.87;;;4.87;;
5217;SDS011;26539;51.064;6.346;2023-07-08T13:06:40;5.50;;;4.40;;
5217;SDS011;26539;51.064;6.346;2023-07-08T13:12:04;10.83;;;4.13;;
5217;SDS011;26539;51.064;6.346;2023-07-08T13:14:37;5.83;;;5.10;;
5217;SDS011;26539;51.064;6.346;2023-07-08T13:17:08;5.13;;;4.63;;
5217;SDS011;26539;51.064;6.346;2023-07-08T13:19:39;4.17;;;3.77;;
5217;SDS011;26539;51.064;6.346;2023-07-08T13:22:08;6.67;;;4.50;;
5217;SDS011;26539;51.064;6.346;2023-07-08T13:24:40;6.93;;;4.63;;
5217;SDS011;26539;51.064;6.346;2023-07-08T13:27:07;7.80;;;4.23;;
5217;SDS011;26539;51.064;6.346;2023-07-08T13:29:38;11.40;;;5.13;;
5217;SDS011;26539;51.064;6.346;2023-07-08T13:32:04;38.47;;;35.03;;
5217;SDS011;26539;51.064;6.346;2023-07-08T13:34:31;11.20;;;10.03;;
5217;SDS011;26539;51.064;6.346;2023-07-08T13:36:58;10.00;;;4.73;;
5217;SDS011;26539;51.064;6.346;2023-07-08T13:39:25;6.43;;;4.30;;
5217;SDS011;26539;51.064;6.346;2023-07-08T13:41:54;8.70;;;5.00;;
5217;SDS011;26539;51.064;6.346;2023-07-08T13:44:20;5.87;;;3.80;;
5217;SDS011;26539;51.064;6.346;2023-07-08T13:46:50;7.10;;;4.17;;
5217;SDS011;26539;51.064;6.346;2023-07-08T13:49:25;4.80;;;4.40;;
5217;SDS011;26539;51.064;6.346;2023-07-08T13:52:04;6.53;;;3.90;;
5217;SDS011;26539;51.064;6.346;2023-07-08T13:54:41;5.37;;;4.30;;
5217;SDS011;26539;51.064;6.346;2023-07-08T13:57:10;4.83;;;3.77;;
5217;SDS011;26539;51.064;6.346;2023-07-08T13:59:37;5.03;;;4.00;;
5217;SDS011;26539;51.064;6.346;2023-07-08T14:02:06;5.10;;;4.23;;
5217;SDS011;26539;51.064;6.346;2023-07-08T14:04:49;6.90;;;4.63;;
5217;SDS011;26539;51.064;6.346;2023-07-08T14:07:21;8.20;;;4.53;;
5217;SDS011;26539;51.064;6.346;2023-07-08T14:09:49;6.53;;;4.33;;
5217;SDS011;26539;51.064;6.346;2023-07-08T14:12:15;6.03;;;3.50;;
5217;SDS011;26539;51.064;6.346;2023-07-08T14:14:41;8.30;;;4.17;;
5217;SDS011;26539;51.064;6.346;2023-07-08T14:17:08;7.27;;;5.33;;
5217;SDS011;26539;51.064;6.346;2023-07-08T14:19:43;5.13;;;4.10;;
5217;SDS011;26539;51.064;6.346;2023-07-08T14:24:43;4.90;;;4.37;;
5217;SDS011;26539;51.064;6.346;2023-07-08T14:27:09;6.00;;;4.30;;
5217;SDS011;26539;51.064;6.346;2023-07-08T14:29:37;4.97;;;4.47;;
5217;SDS011;26539;51.064;6.346;2023-07-08T14:32:03;5.80;;;5.20;;
5217;SDS011;26539;51.064;6.346;2023-07-08T14:34:35;5.63;;;5.00;;
5217;SDS011;26539;51.064;6.346;2023-07-08T14:37:01;6.40;;;4.47;;
5217;SDS011;26539;51.064;6.346;2023-07-08T14:42:07;6.67;;;4.40;;
5217;SDS011;26539;51.064;6.346;2023-07-08T14:44:37;5.47;;;4.80;;
5217;SDS011;26539;51.064;6.346;2023-07-08T14:47:13;5.73;;;4.87;;
5217;SDS011;26539;51.064;6.346;2023-07-08T14:49:45;8.83;;;4.40;;
5217;SDS011;26539;51.064;6.346;2023-07-08T14:52:22;4.93;;;4.23;;
5217;SDS011;26539;51.064;6.346;2023-07-08T14:54:59;6.57;;;4.50;;
5217;SDS011;26539;51.064;6.346;2023-07-08T14:58:00;7.70;;;4.73;;
5217;SDS011;26539;51.064;6.346;2023-07-08T15:00:27;7.63;;;4.43;;
5217;SDS011;26539;51.064;6.346;2023-07-08T15:02:54;8.30;;;4.30;;
5217;SDS011;26539;51.064;6.346;2023-07-08T15:05:23;9.57;;;5.10;;
5217;SDS011;26539;51.064;6.346;2023-07-08T15:07:59;7.73;;;4.47;;
5217;SDS011;26539;51.064;6.346;2023-07-08T15:10:32;7.20;;;5.00;;
5217;SDS011;26539;51.064;6.346;2023-07-08T15:13:19;9.90;;;4.43;;
5217;SDS011;26539;51.064;6.346;2023-07-08T15:15:50;9.07;;;5.50;;
5217;SDS011;26539;51.064;6.346;2023-07-08T15:18:23;8.07;;;4.00;;
5217;SDS011;26539;51.064;6.346;2023-07-08T15:20:58;5.40;;;4.10;;
5217;SDS011;26539;51.064;6.346;2023-07-08T15:23:40;5.50;;;4.50;;
5217;SDS011;26539;51.064;6.346;2023-07-08T15:26:14;7.93;;;5.50;;
5217;SDS011;26539;51.064;6.346;2023-07-08T15:28:53;5.93;;;4.70;;
5217;SDS011;26539;51.064;6.346;2023-07-08T15:31:24;7.30;;;4.93;;
5217;SDS011;26539;51.064;6.346;2023-07-08T15:37:21;6.87;;;4.83;;
5217;SDS011;26539;51.064;6.346;2023-07-08T15:40:07;6.10;;;4.73;;
5217;SDS011;26539;51.064;6.346;2023-07-08T15:42:34;5.73;;;4.60;;
5217;SDS011;26539;51.064;6.346;2023-07-08T15:45:23;6.90;;;4.30;;
5217;SDS011;26539;51.064;6.346;2023-07-08T15:47:46;6.87;;;4.20;;
5217;SDS011;26539;51.064;6.346;2023-07-08T15:50:16;8.60;;;6.00;;
5217;SDS011;26539;51.064;6.346;2023-07-08T15:52:43;5.67;;;4.20;;
5217;SDS011;26539;51.064;6.346;2023-07-08T15:55:09;7.97;;;5.10;;
5217;SDS011;26539;51.064;6.346;2023-07-08T15:57:40;6.27;;;4.43;;
5217;SDS011;26539;51.064;6.346;2023-07-08T16:00:16;7.23;;;5.47;;
5217;SDS011;26539;51.064;6.346;2023-07-08T16:02:45;6.20;;;4.30;;
5217;SDS011;26539;51.064;6.346;2023-07-08T16:05:13;4.90;;;3.93;;
5217;SDS011;26539;51.064;6.346;2023-07-08T16:07:39;6.23;;;4.60;;
5217;SDS011;26539;51.064;6.346;2023-07-08T16:10:04;8.47;;;4.10;;
5217;SDS011;26539;51.064;6.346;2023-07-08T16:12:30;13.20;;;4.57;;
5217;SDS011;26539;51.064;6.346;2023-07-08T16:14:57;8.20;;;4.17;;
5217;SDS011;26539;51.064;6.346;2023-07-08T16:17:22;7.10;;;4.83;;
5217;SDS011;26539;51.064;6.346;2023-07-08T16:19:48;8.53;;;5.20;;
5217;SDS011;26539;51.064;6.346;2023-07-08T16:22:14;7.93;;;4.30;;
5217;SDS011;26539;51.064;6.346;2023-07-08T16:24:39;10.83;;;4.90;;
5217;SDS011;26539;51.064;6.346;2023-07-08T16:27:05;12.90;;;5.70;;
5217;SDS011;26539;51.064;6.346;2023-07-08T16:29:31;7.60;;;4.50;;
5217;SDS011;26539;51.064;6.346;2023-07-08T16:31:57;7.93;;;5.47;;
5217;SDS011;26539;51.064;6.346;2023-07-08T16:34:23;7.53;;;4.87;;
5217;SDS011;26539;51.064;6.346;2023-07-08T16:36:48;18.37;;;5.90;;
5217;SDS011;26539;51.064;6.346;2023-07-08T16:39:14;8.93;;;4.27;;
5217;SDS011;26539;51.064;6.346;2023-07-08T16:41:39;10.50;;;4.53;;
5217;SDS011;26539;51.064;6.346;2023-07-08T16:44:15;7.40;;;5.00;;
5217;SDS011;26539;51.064;6.346;2023-07-08T16:46:41;11.70;;;4.50;;
5217;SDS011;26539;51.064;6.346;2023-07-08T16:49:08;9.70;;;4.60;;
5217;SDS011;26539;51.064;6.346;2023-07-08T16:51:34;6.43;;;3.77;;
5217;SDS011;26539;51.064;6.346;2023-07-08T16:54:01;7.30;;;4.40;;
5217;SDS011;26539;51.064;6.346;2023-07-08T16:56:37;7.63;;;4.23;;
5217;SDS011;26539;51.064;6.346;2023-07-08T16:59:03;5.83;;;3.90;;
5217;SDS011;26539;51.064;6.346;2023-07-08T17:01:29;7.37;;;4.73;;